sensor_id;sensor_type;location;lat;lon;timestamp;P1;durP1;ratioP1;P2;durP2;ratioP2
44165;SDS011;30476;53.468;9.826;2023-03-19T00:00:20;1.10;;;1.00;;
44165;SDS011;30476;53.468;9.826;2023-03-19T00:02:45;1.30;;;1.00;;
44165;SDS011;30476;53.468;9.826;2023-03-19T00:05:15;2.80;;;1.30;;
44165;SDS011;30476;53.468;9.826;2023-03-19T00:07:42;1.30;;;1.20;;
44165;SDS011;30476;53.468;9.826;2023-03-19T00:10:08;1.30;;;1.20;;
44165;SDS011;30476;53.468;9.826;2023-03-19T00:12:34;1.17;;;1.10;;
44165;SDS011;30476;53.468;9.826;2023-03-19T00:15:00;1.40;;;1.20;;
44165;SDS011;30476;53.468;9.826;2023-03-19T00:17:26;1.20;;;1.10;;
44165;SDS011;30476;53.468;9.826;2023-03-19T00:19:52;1.10;;;1.10;;
44165;SDS011;30476;53.468;9.826;2023-03-19T00:22:18;0.90;;;0.90;;
44165;SDS011;30476;53.468;9.826;2023-03-19T00:24:43;0.90;;;0.90;;
44165;SDS011;30476;53.468;9.826;2023-03-19T00:27:09;1.10;;;1.00;;
44165;SDS011;30476;53.468;9.826;2023-03-19T00:29:36;2.30;;;1.10;;
44165;SDS011;30476;53.468;9.826;2023-03-19T00:32:01;1.03;;;0.93;;
44165;SDS011;30476;53.468;9.826;2023-03-19T00:34:27;1.23;;;1.13;;
44165;SDS011;30476;53.468;9.826;2023-03-19T00:36:53;0.93;;;0.93;;
44165;SDS011;30476;53.468;9.826;2023-03-19T00:39:20;1.07;;;0.97;;
44165;SDS011;30476;53.468;9.826;2023-03-19T00:41:46;1.10;;;1.00;;
44165;SDS011;30476;53.468;9.826;2023-03-19T00:44:17;1.90;;;1.10;;
44165;SDS011;30476;53.468;9.826;2023-03-19T00:46:43;0.93;;;0.90;;
44165;SDS011;30476;53.468;9.826;2023-03-19T00:49:10;0.87;;;0.87;;
44165;SDS011;30476;53.468;9.826;2023-03-19T00:51:35;1.20;;;1.10;;
44165;SDS011;30476;53.468;9.826;2023-03-19T00:54:02;1.10;;;1.00;;
44165;SDS011;30476;53.468;9.826;2023-03-19T00:56:28;0.87;;;0.87;;
44165;SDS011;30476;53.468;9.826;2023-03-19T00:58:55;1.77;;;1.67;;
44165;SDS011;30476;53.468;9.826;2023-03-19T01:01:21;1.30;;;1.00;;
44165;SDS011;30476;53.468;9.826;2023-03-19T01:03:46;1.20;;;1.10;;
44165;SDS011;30476;53.468;9.826;2023-03-19T01:06:13;1.20;;;1.10;;
44165;SDS011;30476;53.468;9.826;2023-03-19T01:08:39;1.00;;;1.00;;
44165;SDS011;30476;53.468;9.826;2023-03-19T01:11:08;1.50;;;1.40;;
44165;SDS011;30476;53.468;9.826;2023-03-19T01:13:36;1.10;;;1.10;;
44165;SDS011;30476;53.468;9.826;2023-03-19T01:16:02;1.43;;;1.07;;
44165;SDS011;30476;53.468;9.826;2023-03-19T01:18:28;1.00;;;1.00;;
44165;SDS011;30476;53.468;9.826;2023-03-19T01:20:55;1.83;;;1.10;;
44165;SDS011;30476;53.468;9.826;2023-03-19T01:23:20;1.30;;;1.20;;
44165;SDS011;30476;53.468;9.826;2023-03-19T01:25:46;1.97;;;1.20;;
44165;SDS011;30476;53.468;9.826;2023-03-19T01:28:12;1.40;;;1.30;;
44165;SDS011;30476;53.468;9.826;2023-03-19T01:30:38;1.20;;;1.20;;
44165;SDS011;30476;53.468;9.826;2023-03-19T01:33:05;1.40;;;1.30;;
44165;SDS011;30476;53.468;9.826;2023-03-19T01:35:32;1.40;;;1.30;;
44165;SDS011;30476;53.468;9.826;2023-03-19T01:37:57;1.20;;;1.10;;
44165;SDS011;30476;53.468;9.826;2023-03-19T01:40:23;1.17;;;1.07;;
44165;SDS011;30476;53.468;9.826;2023-03-19T01:43:11;1.20;;;1.20;;
44165;SDS011;30476;53.468;9.826;2023-03-19T01:45:40;1.87;;;1.33;;
44165;SDS011;30476;53.468;9.826;2023-03-19T01:48:11;1.27;;;1.17;;
44165;SDS011;30476;53.468;9.826;2023-03-19T01:50:48;1.30;;;1.20;;
44165;SDS011;30476;53.468;9.826;2023-03-19T01:53:15;1.40;;;1.30;;
44165;SDS011;30476;53.468;9.826;2023-03-19T01:55:42;1.40;;;1.30;;
44165;SDS011;30476;53.468;9.826;2023-03-19T01:58:08;1.40;;;1.30;;
44165;SDS011;30476;53.468;9.826;2023-03-19T02:00:34;2.23;;;1.40;;
44165;SDS011;30476;53.468;9.826;2023-03-19T02:03:03;2.10;;;1.40;;
44165;SDS011;30476;53.468;9.826;2023-03-19T02:05:30;1.87;;;1.20;;
44165;SDS011;30476;53.468;9.826;2023-03-19T02:07:58;1.40;;;1.30;;
44165;SDS011;30476;53.468;9.826;2023-03-19T02:10:27;1.50;;;1.40;;
44165;SDS011;30476;53.468;9.826;2023-03-19T02:12:54;1.30;;;1.20;;
44165;SDS011;30476;53.468;9.826;2023-03-19T02:15:20;1.30;;;1.20;;
44165;SDS011;30476;53.468;9.826;2023-03-19T02:17:47;2.07;;;1.97;;
44165;SDS011;30476;53.468;9.826;2023-03-19T02:20:16;1.87;;;1.77;;
44165;SDS011;30476;53.468;9.826;2023-03-19T02:22:51;1.40;;;1.30;;
44165;SDS011;30476;53.468;9.826;2023-03-19T02:25:24;1.97;;;1.77;;
44165;SDS011;30476;53.468;9.826;2023-03-19T02:27:59;1.60;;;1.50;;
44165;SDS011;30476;53.468;9.826;2023-03-19T02:30:26;3.87;;;1.90;;
44165;SDS011;30476;53.468;9.826;2023-03-19T02:32:54;2.67;;;1.60;;
44165;SDS011;30476;53.468;9.826;2023-03-19T02:35:20;2.27;;;1.40;;
44165;SDS011;30476;53.468;9.826;2023-03-19T02:37:46;1.57;;;1.47;;
44165;SDS011;30476;53.468;9.826;2023-03-19T02:40:17;1.60;;;1.50;;
44165;SDS011;30476;53.468;9.826;2023-03-19T02:42:47;1.43;;;1.33;;
44165;SDS011;30476;53.468;9.826;2023-03-19T02:45:13;1.30;;;1.20;;
44165;SDS011;30476;53.468;9.826;2023-03-19T02:47:39;1.77;;;1.40;;
44165;SDS011;30476;53.468;9.826;2023-03-19T02:50:05;1.83;;;1.70;;
44165;SDS011;30476;53.468;9.826;2023-03-19T02:52:32;3.43;;;1.70;;
44165;SDS011;30476;53.468;9.826;2023-03-19T02:54:58;2.47;;;1.30;;
44165;SDS011;30476;53.468;9.826;2023-03-19T02:57:24;1.53;;;1.43;;
44165;SDS011;30476;53.468;9.826;2023-03-19T02:59:50;1.53;;;1.43;;
44165;SDS011;30476;53.468;9.826;2023-03-19T03:02:16;1.83;;;1.40;;
44165;SDS011;30476;53.468;9.826;2023-03-19T03:04:42;1.63;;;1.53;;
44165;SDS011;30476;53.468;9.826;2023-03-19T03:07:07;1.87;;;1.53;;
44165;SDS011;30476;53.468;9.826;2023-03-19T03:09:33;3.20;;;2.90;;
44165;SDS011;30476;53.468;9.826;2023-03-19T03:11:59;2.27;;;2.07;;
44165;SDS011;30476;53.468;9.826;2023-03-19T03:14:25;2.20;;;1.57;;
44165;SDS011;30476;53.468;9.826;2023-03-19T03:16:51;1.50;;;1.40;;
44165;SDS011;30476;53.468;9.826;2023-03-19T03:19:17;2.20;;;2.07;;
44165;SDS011;30476;53.468;9.826;2023-03-19T03:21:43;1.63;;;1.53;;
44165;SDS011;30476;53.468;9.826;2023-03-19T03:24:09;3.27;;;1.67;;
44165;SDS011;30476;53.468;9.826;2023-03-19T03:26:35;4.33;;;2.73;;
44165;SDS011;30476;53.468;9.826;2023-03-19T03:29:06;1.90;;;1.80;;
44165;SDS011;30476;53.468;9.826;2023-03-19T03:31:32;2.53;;;2.43;;
44165;SDS011;30476;53.468;9.826;2023-03-19T03:33:59;2.40;;;2.20;;
44165;SDS011;30476;53.468;9.826;2023-03-19T03:36:26;3.90;;;2.03;;
44165;SDS011;30476;53.468;9.826;2023-03-19T03:38:52;2.27;;;2.07;;
44165;SDS011;30476;53.468;9.826;2023-03-19T03:41:18;2.80;;;2.60;;
44165;SDS011;30476;53.468;9.826;2023-03-19T03:43:44;2.30;;;2.20;;
44165;SDS011;30476;53.468;9.826;2023-03-19T03:46:10;4.50;;;2.60;;
44165;SDS011;30476;53.468;9.826;2023-03-19T03:48:36;2.80;;;2.60;;
44165;SDS011;30476;53.468;9.826;2023-03-19T03:51:02;2.47;;;2.37;;
44165;SDS011;30476;53.468;9.826;2023-03-19T03:53:28;3.30;;;3.10;;
44165;SDS011;30476;53.468;9.826;2023-03-19T03:55:54;2.90;;;2.70;;
44165;SDS011;30476;53.468;9.826;2023-03-19T03:58:20;2.90;;;2.80;;
44165;SDS011;30476;53.468;9.826;2023-03-19T04:00:46;4.17;;;2.93;;
44165;SDS011;30476;53.468;9.826;2023-03-19T04:03:12;3.03;;;2.83;;
44165;SDS011;30476;53.468;9.826;2023-03-19T04:05:38;3.70;;;3.10;;
44165;SDS011;30476;53.468;9.826;2023-03-19T04:08:06;11.60;;;3.07;;
44165;SDS011;30476;53.468;9.826;2023-03-19T04:10:32;3.50;;;3.20;;
44165;SDS011;30476;53.468;9.826;2023-03-19T04:13:00;3.80;;;3.50;;
44165;SDS011;30476;53.468;9.826;2023-03-19T04:15:26;3.70;;;3.50;;
44165;SDS011;30476;53.468;9.826;2023-03-19T04:17:51;3.70;;;3.50;;
44165;SDS011;30476;53.468;9.826;2023-03-19T04:20:17;3.50;;;3.20;;
44165;SDS011;30476;53.468;9.826;2023-03-19T04:22:44;3.80;;;3.60;;
44165;SDS011;30476;53.468;9.826;2023-03-19T04:25:10;3.77;;;3.47;;
44165;SDS011;30476;53.468;9.826;2023-03-19T04:27:36;5.13;;;4.40;;
44165;SDS011;30476;53.468;9.826;2023-03-19T04:30:02;4.37;;;4.07;;
44165;SDS011;30476;53.468;9.826;2023-03-19T04:32:28;4.77;;;4.40;;
44165;SDS011;30476;53.468;9.826;2023-03-19T04:34:54;4.10;;;3.80;;
44165;SDS011;30476;53.468;9.826;2023-03-19T04:37:20;4.63;;;4.23;;
44165;SDS011;30476;53.468;9.826;2023-03-19T04:39:46;5.00;;;4.20;;
44165;SDS011;30476;53.468;9.826;2023-03-19T04:42:12;4.23;;;3.83;;
44165;SDS011;30476;53.468;9.826;2023-03-19T04:44:37;5.30;;;4.80;;
44165;SDS011;30476;53.468;9.826;2023-03-19T04:47:03;4.17;;;3.87;;
44165;SDS011;30476;53.468;9.826;2023-03-19T04:49:29;6.10;;;5.60;;
44165;SDS011;30476;53.468;9.826;2023-03-19T04:51:55;5.40;;;5.00;;
44165;SDS011;30476;53.468;9.826;2023-03-19T04:54:22;5.27;;;4.90;;
44165;SDS011;30476;53.468;9.826;2023-03-19T04:56:49;5.23;;;4.93;;
44165;SDS011;30476;53.468;9.826;2023-03-19T04:59:16;6.80;;;6.20;;
44165;SDS011;30476;53.468;9.826;2023-03-19T05:01:41;6.17;;;5.67;;
44165;SDS011;30476;53.468;9.826;2023-03-19T05:04:07;5.40;;;5.00;;
44165;SDS011;30476;53.468;9.826;2023-03-19T05:06:34;6.43;;;5.90;;
44165;SDS011;30476;53.468;9.826;2023-03-19T05:09:00;7.40;;;6.77;;
44165;SDS011;30476;53.468;9.826;2023-03-19T05:11:27;6.40;;;5.80;;
44165;SDS011;30476;53.468;9.826;2023-03-19T05:13:52;6.93;;;5.83;;
44165;SDS011;30476;53.468;9.826;2023-03-19T05:16:18;8.27;;;6.80;;
44165;SDS011;30476;53.468;9.826;2023-03-19T05:18:44;6.17;;;5.60;;
44165;SDS011;30476;53.468;9.826;2023-03-19T05:21:10;7.20;;;6.50;;
44165;SDS011;30476;53.468;9.826;2023-03-19T05:23:36;8.17;;;7.37;;
44165;SDS011;30476;53.468;9.826;2023-03-19T05:26:03;6.90;;;6.20;;
44165;SDS011;30476;53.468;9.826;2023-03-19T05:28:28;6.90;;;6.30;;
44165;SDS011;30476;53.468;9.826;2023-03-19T05:30:54;10.83;;;7.27;;
44165;SDS011;30476;53.468;9.826;2023-03-19T05:33:21;7.80;;;7.10;;
44165;SDS011;30476;53.468;9.826;2023-03-19T05:35:47;5.93;;;5.53;;
44165;SDS011;30476;53.468;9.826;2023-03-19T05:38:13;6.60;;;6.10;;
44165;SDS011;30476;53.468;9.826;2023-03-19T05:40:39;7.53;;;6.90;;
44165;SDS011;30476;53.468;9.826;2023-03-19T05:43:06;6.23;;;5.73;;
44165;SDS011;30476;53.468;9.826;2023-03-19T05:45:33;7.23;;;6.53;;
44165;SDS011;30476;53.468;9.826;2023-03-19T05:48:00;6.17;;;5.60;;
44165;SDS011;30476;53.468;9.826;2023-03-19T05:50:27;6.60;;;6.07;;
44165;SDS011;30476;53.468;9.826;2023-03-19T05:52:53;6.03;;;5.43;;
44165;SDS011;30476;53.468;9.826;2023-03-19T05:55:19;5.87;;;5.47;;
44165;SDS011;30476;53.468;9.826;2023-03-19T05:57:45;6.80;;;6.20;;
44165;SDS011;30476;53.468;9.826;2023-03-19T06:00:11;6.40;;;5.93;;
44165;SDS011;30476;53.468;9.826;2023-03-19T06:02:38;8.07;;;7.37;;
44165;SDS011;30476;53.468;9.826;2023-03-19T06:05:04;6.47;;;5.70;;
44165;SDS011;30476;53.468;9.826;2023-03-19T06:07:30;7.10;;;6.37;;
44165;SDS011;30476;53.468;9.826;2023-03-19T06:09:56;6.80;;;6.30;;
44165;SDS011;30476;53.468;9.826;2023-03-19T06:12:22;6.40;;;5.80;;
44165;SDS011;30476;53.468;9.826;2023-03-19T06:14:49;6.97;;;6.07;;
44165;SDS011;30476;53.468;9.826;2023-03-19T06:17:14;7.80;;;6.13;;
44165;SDS011;30476;53.468;9.826;2023-03-19T06:19:40;7.17;;;5.80;;
44165;SDS011;30476;53.468;9.826;2023-03-19T06:22:06;6.50;;;5.90;;
44165;SDS011;30476;53.468;9.826;2023-03-19T06:24:32;8.50;;;7.70;;
44165;SDS011;30476;53.468;9.826;2023-03-19T06:26:58;8.00;;;7.20;;
44165;SDS011;30476;53.468;9.826;2023-03-19T06:29:24;7.20;;;6.60;;
44165;SDS011;30476;53.468;9.826;2023-03-19T06:31:50;8.60;;;7.03;;
44165;SDS011;30476;53.468;9.826;2023-03-19T06:34:16;8.97;;;8.17;;
44165;SDS011;30476;53.468;9.826;2023-03-19T06:36:42;7.93;;;7.07;;
44165;SDS011;30476;53.468;9.826;2023-03-19T06:39:08;8.77;;;7.03;;
44165;SDS011;30476;53.468;9.826;2023-03-19T06:41:34;9.70;;;7.30;;
44165;SDS011;30476;53.468;9.826;2023-03-19T06:44:01;9.63;;;7.03;;
44165;SDS011;30476;53.468;9.826;2023-03-19T06:46:28;7.40;;;6.70;;
44165;SDS011;30476;53.468;9.826;2023-03-19T06:48:53;8.87;;;6.30;;
44165;SDS011;30476;53.468;9.826;2023-03-19T06:51:19;7.70;;;7.00;;
44165;SDS011;30476;53.468;9.826;2023-03-19T06:53:45;7.57;;;6.87;;
44165;SDS011;30476;53.468;9.826;2023-03-19T06:56:11;8.03;;;7.20;;
44165;SDS011;30476;53.468;9.826;2023-03-19T06:58:37;8.00;;;7.30;;
44165;SDS011;30476;53.468;9.826;2023-03-19T07:01:03;8.37;;;6.53;;
44165;SDS011;30476;53.468;9.826;2023-03-19T07:03:29;8.03;;;6.20;;
44165;SDS011;30476;53.468;9.826;2023-03-19T07:05:55;7.13;;;6.53;;
44165;SDS011;30476;53.468;9.826;2023-03-19T07:08:21;7.63;;;6.67;;
44165;SDS011;30476;53.468;9.826;2023-03-19T07:10:47;7.03;;;6.40;;
44165;SDS011;30476;53.468;9.826;2023-03-19T07:13:12;7.20;;;6.60;;
44165;SDS011;30476;53.468;9.826;2023-03-19T07:15:38;7.17;;;6.57;;
44165;SDS011;30476;53.468;9.826;2023-03-19T07:18:04;7.77;;;7.07;;
44165;SDS011;30476;53.468;9.826;2023-03-19T07:20:30;9.90;;;9.20;;
44165;SDS011;30476;53.468;9.826;2023-03-19T07:22:56;7.90;;;7.20;;
44165;SDS011;30476;53.468;9.826;2023-03-19T07:25:21;7.83;;;7.20;;
44165;SDS011;30476;53.468;9.826;2023-03-19T07:27:47;7.70;;;7.00;;
44165;SDS011;30476;53.468;9.826;2023-03-19T07:30:13;7.77;;;7.00;;
44165;SDS011;30476;53.468;9.826;2023-03-19T07:32:40;8.33;;;7.53;;
44165;SDS011;30476;53.468;9.826;2023-03-19T07:35:07;8.10;;;6.97;;
44165;SDS011;30476;53.468;9.826;2023-03-19T07:37:33;9.03;;;6.90;;
44165;SDS011;30476;53.468;9.826;2023-03-19T07:39:59;8.43;;;7.00;;
44165;SDS011;30476;53.468;9.826;2023-03-19T07:42:25;7.53;;;6.83;;
44165;SDS011;30476;53.468;9.826;2023-03-19T07:44:51;7.73;;;7.10;;
44165;SDS011;30476;53.468;9.826;2023-03-19T07:47:17;9.50;;;6.80;;
44165;SDS011;30476;53.468;9.826;2023-03-19T07:49:43;8.03;;;7.33;;
44165;SDS011;30476;53.468;9.826;2023-03-19T07:52:09;7.17;;;6.50;;
44165;SDS011;30476;53.468;9.826;2023-03-19T07:54:35;7.43;;;6.83;;
44165;SDS011;30476;53.468;9.826;2023-03-19T07:57:00;8.17;;;7.10;;
44165;SDS011;30476;53.468;9.826;2023-03-19T07:59:26;8.77;;;8.00;;
44165;SDS011;30476;53.468;9.826;2023-03-19T08:01:52;7.70;;;6.90;;
44165;SDS011;30476;53.468;9.826;2023-03-19T08:04:18;10.13;;;8.23;;
44165;SDS011;30476;53.468;9.826;2023-03-19T08:06:43;7.87;;;6.97;;
44165;SDS011;30476;53.468;9.826;2023-03-19T08:09:09;7.00;;;6.50;;
44165;SDS011;30476;53.468;9.826;2023-03-19T08:11:36;10.50;;;7.00;;
44165;SDS011;30476;53.468;9.826;2023-03-19T08:14:02;6.70;;;6.10;;
44165;SDS011;30476;53.468;9.826;2023-03-19T08:16:28;7.50;;;6.90;;
44165;SDS011;30476;53.468;9.826;2023-03-19T08:18:53;7.00;;;6.40;;
44165;SDS011;30476;53.468;9.826;2023-03-19T08:21:19;6.80;;;6.20;;
44165;SDS011;30476;53.468;9.826;2023-03-19T08:23:45;5.63;;;5.13;;
44165;SDS011;30476;53.468;9.826;2023-03-19T08:26:11;5.60;;;5.10;;
44165;SDS011;30476;53.468;9.826;2023-03-19T08:28:37;5.87;;;5.37;;
44165;SDS011;30476;53.468;9.826;2023-03-19T08:31:07;5.60;;;5.10;;
44165;SDS011;30476;53.468;9.826;2023-03-19T08:33:36;5.97;;;5.30;;
44165;SDS011;30476;53.468;9.826;2023-03-19T08:36:06;6.10;;;5.60;;
44165;SDS011;30476;53.468;9.826;2023-03-19T08:38:34;5.20;;;4.70;;
44165;SDS011;30476;53.468;9.826;2023-03-19T08:40:59;5.13;;;4.70;;
44165;SDS011;30476;53.468;9.826;2023-03-19T08:43:29;6.10;;;5.60;;
44165;SDS011;30476;53.468;9.826;2023-03-19T08:45:56;5.27;;;4.80;;
44165;SDS011;30476;53.468;9.826;2023-03-19T08:48:21;5.47;;;4.97;;
44165;SDS011;30476;53.468;9.826;2023-03-19T08:50:54;8.07;;;5.40;;
44165;SDS011;30476;53.468;9.826;2023-03-19T08:53:21;5.90;;;4.97;;
44165;SDS011;30476;53.468;9.826;2023-03-19T08:55:51;5.43;;;4.93;;
44165;SDS011;30476;53.468;9.826;2023-03-19T08:58:18;6.50;;;5.90;;
44165;SDS011;30476;53.468;9.826;2023-03-19T09:00:44;5.10;;;4.70;;
44165;SDS011;30476;53.468;9.826;2023-03-19T09:03:10;6.63;;;5.90;;
44165;SDS011;30476;53.468;9.826;2023-03-19T09:05:36;5.07;;;4.67;;
44165;SDS011;30476;53.468;9.826;2023-03-19T09:08:01;5.43;;;4.90;;
44165;SDS011;30476;53.468;9.826;2023-03-19T09:10:27;5.43;;;4.97;;
44165;SDS011;30476;53.468;9.826;2023-03-19T09:12:53;6.00;;;4.77;;
44165;SDS011;30476;53.468;9.826;2023-03-19T09:15:19;5.60;;;5.10;;
44165;SDS011;30476;53.468;9.826;2023-03-19T09:17:45;5.10;;;4.70;;
44165;SDS011;30476;53.468;9.826;2023-03-19T09:20:11;3.97;;;3.67;;
44165;SDS011;30476;53.468;9.826;2023-03-19T09:22:37;4.00;;;3.73;;
44165;SDS011;30476;53.468;9.826;2023-03-19T09:25:03;4.13;;;3.83;;
44165;SDS011;30476;53.468;9.826;2023-03-19T09:27:29;3.53;;;2.93;;
44165;SDS011;30476;53.468;9.826;2023-03-19T09:29:54;3.10;;;2.80;;
44165;SDS011;30476;53.468;9.826;2023-03-19T09:32:20;2.73;;;2.53;;
44165;SDS011;30476;53.468;9.826;2023-03-19T09:34:46;2.93;;;2.70;;
44165;SDS011;30476;53.468;9.826;2023-03-19T09:37:12;3.00;;;2.80;;
44165;SDS011;30476;53.468;9.826;2023-03-19T09:39:37;3.13;;;2.40;;
44165;SDS011;30476;53.468;9.826;2023-03-19T09:42:14;3.47;;;3.20;;
44165;SDS011;30476;53.468;9.826;2023-03-19T09:45:00;3.60;;;3.30;;
44165;SDS011;30476;53.468;9.826;2023-03-19T09:47:30;3.67;;;3.37;;
44165;SDS011;30476;53.468;9.826;2023-03-19T09:49:58;3.77;;;3.20;;
44165;SDS011;30476;53.468;9.826;2023-03-19T09:57:56;3.77;;;3.47;;
44165;SDS011;30476;53.468;9.826;2023-03-19T10:00:23;3.17;;;2.97;;
44165;SDS011;30476;53.468;9.826;2023-03-19T10:03:15;3.70;;;3.50;;
44165;SDS011;30476;53.468;9.826;2023-03-19T10:08:56;2.70;;;2.50;;
44165;SDS011;30476;53.468;9.826;2023-03-19T10:14:04;4.47;;;2.10;;
44165;SDS011;30476;53.468;9.826;2023-03-19T10:16:50;3.10;;;2.90;;
44165;SDS011;30476;53.468;9.826;2023-03-19T10:19:20;3.13;;;2.93;;
44165;SDS011;30476;53.468;9.826;2023-03-19T10:21:52;3.40;;;3.10;;
44165;SDS011;30476;53.468;9.826;2023-03-19T10:24:22;3.10;;;2.80;;
44165;SDS011;30476;53.468;9.826;2023-03-19T10:27:04;3.20;;;3.10;;
44165;SDS011;30476;53.468;9.826;2023-03-19T10:29:42;3.23;;;2.80;;
44165;SDS011;30476;53.468;9.826;2023-03-19T10:32:17;4.90;;;2.20;;
44165;SDS011;30476;53.468;9.826;2023-03-19T10:34:49;3.80;;;2.83;;
44165;SDS011;30476;53.468;9.826;2023-03-19T10:37:19;4.87;;;2.57;;
44165;SDS011;30476;53.468;9.826;2023-03-19T10:39:47;2.83;;;2.63;;
44165;SDS011;30476;53.468;9.826;2023-03-19T10:44:58;3.40;;;3.20;;
44165;SDS011;30476;53.468;9.826;2023-03-19T10:47:37;5.40;;;3.00;;
44165;SDS011;30476;53.468;9.826;2023-03-19T10:50:04;3.97;;;3.30;;
44165;SDS011;30476;53.468;9.826;2023-03-19T10:52:31;3.17;;;2.97;;
44165;SDS011;30476;53.468;9.826;2023-03-19T10:55:13;6.10;;;3.00;;
44165;SDS011;30476;53.468;9.826;2023-03-19T10:57:50;1.90;;;1.80;;
44165;SDS011;30476;53.468;9.826;2023-03-19T11:00:25;3.17;;;2.10;;
44165;SDS011;30476;53.468;9.826;2023-03-19T11:02:56;3.60;;;2.40;;
44165;SDS011;30476;53.468;9.826;2023-03-19T11:05:24;2.70;;;2.13;;
44165;SDS011;30476;53.468;9.826;2023-03-19T11:07:58;2.70;;;2.47;;
44165;SDS011;30476;53.468;9.826;2023-03-19T11:10:44;2.00;;;1.80;;
44165;SDS011;30476;53.468;9.826;2023-03-19T11:13:22;1.83;;;1.60;;
44165;SDS011;30476;53.468;9.826;2023-03-19T11:15:50;2.20;;;2.10;;
44165;SDS011;30476;53.468;9.826;2023-03-19T11:18:21;1.77;;;1.67;;
44165;SDS011;30476;53.468;9.826;2023-03-19T11:24:02;2.90;;;1.93;;
44165;SDS011;30476;53.468;9.826;2023-03-19T11:26:29;2.20;;;2.10;;
44165;SDS011;30476;53.468;9.826;2023-03-19T11:29:00;2.90;;;2.57;;
44165;SDS011;30476;53.468;9.826;2023-03-19T11:31:30;2.43;;;2.20;;
44165;SDS011;30476;53.468;9.826;2023-03-19T11:34:16;2.00;;;1.90;;
44165;SDS011;30476;53.468;9.826;2023-03-19T11:37:16;4.37;;;2.33;;
44165;SDS011;30476;53.468;9.826;2023-03-19T11:40:26;2.07;;;1.90;;
44165;SDS011;30476;53.468;9.826;2023-03-19T11:48:45;2.70;;;2.57;;
44165;SDS011;30476;53.468;9.826;2023-03-19T11:51:41;4.00;;;3.70;;
44165;SDS011;30476;53.468;9.826;2023-03-19T11:54:16;3.27;;;2.97;;
44165;SDS011;30476;53.468;9.826;2023-03-19T12:05:22;2.23;;;2.00;;
44165;SDS011;30476;53.468;9.826;2023-03-19T12:07:59;2.17;;;1.50;;
44165;SDS011;30476;53.468;9.826;2023-03-19T12:13:30;1.73;;;1.63;;
44165;SDS011;30476;53.468;9.826;2023-03-19T12:22:01;2.00;;;1.60;;
44165;SDS011;30476;53.468;9.826;2023-03-19T12:24:53;1.80;;;1.60;;
44165;SDS011;30476;53.468;9.826;2023-03-19T12:27:46;3.37;;;2.30;;
44165;SDS011;30476;53.468;9.826;2023-03-19T12:35:47;15.77;;;13.17;;
44165;SDS011;30476;53.468;9.826;2023-03-19T12:38:27;2.80;;;2.60;;
44165;SDS011;30476;53.468;9.826;2023-03-19T12:41:26;1.70;;;1.60;;
44165;SDS011;30476;53.468;9.826;2023-03-19T12:46:32;1.93;;;1.67;;
44165;SDS011;30476;53.468;9.826;2023-03-19T12:51:47;2.43;;;2.30;;
44165;SDS011;30476;53.468;9.826;2023-03-19T12:54:23;1.90;;;1.80;;
44165;SDS011;30476;53.468;9.826;2023-03-19T12:57:03;2.50;;;2.30;;
44165;SDS011;30476;53.468;9.826;2023-03-19T12:59:35;2.87;;;2.67;;
44165;SDS011;30476;53.468;9.826;2023-03-19T13:02:23;5.37;;;2.53;;
44165;SDS011;30476;53.468;9.826;2023-03-19T13:04:59;2.33;;;2.23;;
44165;SDS011;30476;53.468;9.826;2023-03-19T13:10:30;3.83;;;2.20;;
44165;SDS011;30476;53.468;9.826;2023-03-19T13:12:59;2.30;;;2.13;;
44165;SDS011;30476;53.468;9.826;2023-03-19T13:15:40;2.73;;;2.53;;
44165;SDS011;30476;53.468;9.826;2023-03-19T13:21:28;5.13;;;2.50;;
44165;SDS011;30476;53.468;9.826;2023-03-19T13:26:59;2.93;;;2.73;;
44165;SDS011;30476;53.468;9.826;2023-03-19T13:29:26;2.70;;;2.40;;
44165;SDS011;30476;53.468;9.826;2023-03-19T13:32:00;3.13;;;2.77;;
44165;SDS011;30476;53.468;9.826;2023-03-19T13:34:32;3.50;;;3.30;;
44165;SDS011;30476;53.468;9.826;2023-03-19T13:37:03;4.67;;;3.73;;
44165;SDS011;30476;53.468;9.826;2023-03-19T13:39:34;3.70;;;3.40;;
44165;SDS011;30476;53.468;9.826;2023-03-19T13:46:59;3.90;;;3.70;;
44165;SDS011;30476;53.468;9.826;2023-03-19T13:49:28;4.57;;;4.17;;
44165;SDS011;30476;53.468;9.826;2023-03-19T13:54:39;3.30;;;3.10;;
44165;SDS011;30476;53.468;9.826;2023-03-19T13:59:39;4.83;;;4.23;;
44165;SDS011;30476;53.468;9.826;2023-03-19T14:07:22;5.67;;;5.13;;
44165;SDS011;30476;53.468;9.826;2023-03-19T14:12:31;4.87;;;4.40;;
44165;SDS011;30476;53.468;9.826;2023-03-19T14:15:02;5.27;;;4.97;;
44165;SDS011;30476;53.468;9.826;2023-03-19T14:17:31;8.27;;;6.03;;
44165;SDS011;30476;53.468;9.826;2023-03-19T14:20:02;5.97;;;5.60;;
44165;SDS011;30476;53.468;9.826;2023-03-19T14:22:36;5.80;;;5.50;;
44165;SDS011;30476;53.468;9.826;2023-03-19T14:25:22;5.70;;;5.40;;
44165;SDS011;30476;53.468;9.826;2023-03-19T14:27:53;6.23;;;5.73;;
44165;SDS011;30476;53.468;9.826;2023-03-19T14:30:36;6.40;;;5.97;;
44165;SDS011;30476;53.468;9.826;2023-03-19T14:33:14;5.70;;;5.33;;
44165;SDS011;30476;53.468;9.826;2023-03-19T14:36:02;5.67;;;5.30;;
44165;SDS011;30476;53.468;9.826;2023-03-19T14:41:32;5.83;;;5.43;;
44165;SDS011;30476;53.468;9.826;2023-03-19T14:44:46;6.00;;;5.50;;
44165;SDS011;30476;53.468;9.826;2023-03-19T14:52:50;5.90;;;5.23;;
44165;SDS011;30476;53.468;9.826;2023-03-19T14:55:31;5.53;;;5.07;;
44165;SDS011;30476;53.468;9.826;2023-03-19T14:58:01;6.30;;;5.80;;
44165;SDS011;30476;53.468;9.826;2023-03-19T15:00:28;9.20;;;7.73;;
44165;SDS011;30476;53.468;9.826;2023-03-19T15:03:01;8.47;;;7.60;;
44165;SDS011;30476;53.468;9.826;2023-03-19T15:05:27;8.50;;;7.53;;
44165;SDS011;30476;53.468;9.826;2023-03-19T15:07:58;7.73;;;7.03;;
44165;SDS011;30476;53.468;9.826;2023-03-19T15:14:16;9.27;;;8.47;;
44165;SDS011;30476;53.468;9.826;2023-03-19T15:17:00;10.67;;;9.60;;
44165;SDS011;30476;53.468;9.826;2023-03-19T15:19:34;10.90;;;9.90;;
44165;SDS011;30476;53.468;9.826;2023-03-19T15:22:13;10.97;;;9.90;;
44165;SDS011;30476;53.468;9.826;2023-03-19T15:24:43;10.33;;;9.47;;
44165;SDS011;30476;53.468;9.826;2023-03-19T15:27:20;16.93;;;10.20;;
44165;SDS011;30476;53.468;9.826;2023-03-19T15:29:47;11.87;;;10.80;;
44165;SDS011;30476;53.468;9.826;2023-03-19T15:32:36;12.30;;;11.10;;
44165;SDS011;30476;53.468;9.826;2023-03-19T15:35:04;12.03;;;10.83;;
44165;SDS011;30476;53.468;9.826;2023-03-19T15:37:32;12.77;;;11.57;;
44165;SDS011;30476;53.468;9.826;2023-03-19T15:40:07;16.27;;;14.10;;
44165;SDS011;30476;53.468;9.826;2023-03-19T15:42:36;15.43;;;13.90;;
44165;SDS011;30476;53.468;9.826;2023-03-19T15:45:07;15.83;;;14.23;;
44165;SDS011;30476;53.468;9.826;2023-03-19T15:47:37;15.00;;;13.60;;
44165;SDS011;30476;53.468;9.826;2023-03-19T15:50:32;17.27;;;15.60;;
44165;SDS011;30476;53.468;9.826;2023-03-19T15:53:09;18.20;;;15.67;;
44165;SDS011;30476;53.468;9.826;2023-03-19T15:55:38;16.90;;;15.20;;
44165;SDS011;30476;53.468;9.826;2023-03-19T15:58:05;19.10;;;15.00;;
44165;SDS011;30476;53.468;9.826;2023-03-19T16:00:34;16.00;;;14.50;;
44165;SDS011;30476;53.468;9.826;2023-03-19T16:03:02;15.30;;;13.90;;
44165;SDS011;30476;53.468;9.826;2023-03-19T16:05:30;13.73;;;12.33;;
44165;SDS011;30476;53.468;9.826;2023-03-19T16:07:57;13.90;;;12.63;;
44165;SDS011;30476;53.468;9.826;2023-03-19T16:10:32;13.37;;;12.07;;
44165;SDS011;30476;53.468;9.826;2023-03-19T16:12:58;12.50;;;11.20;;
44165;SDS011;30476;53.468;9.826;2023-03-19T16:15:39;13.83;;;11.50;;
44165;SDS011;30476;53.468;9.826;2023-03-19T16:18:08;11.67;;;10.63;;
44165;SDS011;30476;53.468;9.826;2023-03-19T16:21:00;9.80;;;9.00;;
44165;SDS011;30476;53.468;9.826;2023-03-19T16:23:30;10.97;;;9.97;;
44165;SDS011;30476;53.468;9.826;2023-03-19T16:26:03;10.90;;;9.90;;
44165;SDS011;30476;53.468;9.826;2023-03-19T16:28:35;10.70;;;9.70;;